This is the latest recevied weather packets stored in our database for station/object WB0VGI-1. If no packets are shown the sender has not sent any weather packets the latest 10 day(s).
| Time | Temp. | Humidity | Pressure | Rain* | Wind** | Luminosity | Snow |
|---|---|---|---|---|---|---|---|
| 1778210826 | 8.89° C | 45% | 1013 hPa | 0 mm | - | - | - |
| 1778209626 | 9.44° C | 43% | 1013 hPa | 0 mm | - | - | - |
| 1778208426 | 10° C | 43% | 1012.9 hPa | 0 mm | - | - | - |
| 1778207226 | 10° C | 42% | 1012.8 hPa | 0 mm | - | - | - |
| 1778206026 | 10.56° C | 41% | 1012.7 hPa | 0 mm | - | - | - |
| 1778204826 | 11.11° C | 40% | 1012.3 hPa | 0 mm | - | - | - |
| 1778203626 | 12.22° C | 39% | 1012.2 hPa | 0 mm | - | - | - |
| 1778202426 | 12.78° C | 37% | 1012.1 hPa | 0 mm | - | - | - |
| 1778201226 | 12.78° C | 37% | 1012.1 hPa | 0 mm | - | - | - |
| 1778200026 | 13.89° C | 35% | 1012.1 hPa | 0 mm | - | - | - |
| 1778198826 | 14.44° C | 34% | 1012 hPa | 0 mm | - | - | - |
| 1778197626 | 13.89° C | 34% | 1012.1 hPa | 0 mm | - | - | - |
| 1778196426 | 14.44° C | 34% | 1012.2 hPa | 0 mm | - | - | - |
| 1778195226 | 13.89° C | 34% | 1012.4 hPa | 0 mm | - | - | - |
| 1778194026 | 14.44° C | 34% | 1012.4 hPa | 0 mm | - | - | - |
| 1778192826 | 13.33° C | 35% | 1012.6 hPa | 0 mm | - | - | - |
| 1778191626 | 13.89° C | 33% | 1012.7 hPa | 0 mm | - | - | - |
| 1778190426 | 13.33° C | 34% | 1012.8 hPa | 0 mm | - | - | - |
| 1778189226 | 13.33° C | 33% | 1012.9 hPa | 0 mm | - | - | - |
| 1778188026 | 13.33° C | 33% | 1013 hPa | 0 mm | - | - | - |
| 1778186826 | 14.44° C | 32% | 1013.1 hPa | 0 mm | - | - | - |
| 1778185626 | 14.44° C | 32% | 1013.3 hPa | 0 mm | - | - | - |
| 1778184426 | 12.78° C | 34% | 1013.8 hPa | 0 mm | - | - | - |
| 1778183226 | 12.78° C | 36% | 1014 hPa | 0 mm | - | - | - |
| 1778182026 | 13.89° C | 32% | 1014 hPa | 0 mm | - | - | - |
* Rain latest hour (hover to see other rain measurements)
** Current wind speed in m/s (hover to see current wind gust speed)